Saint Charles, MO

7:25 PM CST on February 05, 2016 (GMT -0600)
Monticello | | Change Station
CLOSE
Current Station
Personal Weather Station
Location: OFallon, MO
Elevation: 509 ft
Nearby Weather Stations

Elev 509 ft 38.74 °N, 90.70 °W | Updated 42 seconds ago

Mostly Cloudy
Mostly Cloudy
31.3 °F
Feels Like 31 °F
N
0.0
Wind Variable Wind from NE

Today
High -- | Low -- °F
--% Chance of Precip.
Yesterday
High -- | Low -- °F
Precip. -- in
Pressure 30.39 in
Visibility 10.0 miles
Clouds Clear
Windchill 31 °F
Dew Point 18 °F
Humidity 58%
Rainfall 0.00 in
Snow Depth Not available.
7:05 AM 5:28 PM
Waning Crescent, 8% visible
METAR KSUS 060054Z 10003KT 10SM CLR M01/M06 A3036 RMK AO2 SLP289 T10061056
Pressure 30.39 in
Visibility 10.0 miles
Clouds Clear
Windchill 31 °F
Dew Point 18 °F
Humidity 58%
Rainfall 0.00 in
Snow Depth Not available.
7:05 AM 5:28 PM
Waning Crescent, 8% visible
METAR KSUS 060054Z 10003KT 10SM CLR M01/M06 A3036 RMK AO2 SLP289 T10061056

10-Day Weather Forecast

Almanac

Astronomy

Feb. 05, 2016 Rise Set
Actual Time
Civil Twilight
Nautical Twilight
Astronomical Twilight
Moon
Length of Visible Light
Length of Day
Tomorrow will be .
, % of the Moon is Illuminated

Today's Extremes

State Highs State Lows

Community

WunderPhotos

Upload Photos

1,890,904 photos uploaded!

WunderBlog® & News

Nearby

Air Quality

  Air Quality AQ Index Pollutant
Not available.

Snow Depth

Station Depth Elevation

Earthquake Activity

City Distance Mag. Time & Date
Minimum magnitude displayed is 2.5.

Coastal Water Temperatures

Place Temperature

Stations

Nearby Weather Stations

Station Location Temp. Windchill Dew Point Humidity Wind Precip. Elev Updated Type
                   

Watches & Warnings

There are currently no watches in effect.